Time;durP1;ratioP1;P1;durP2;ratioP2;P2;SDS_P1;SDS_P2;PMS_P1;PMS_P2;Temp;Humidity;BMP_temperature;BMP_pressure;BME280_temperature;BME280_humidity;BME280_pressure;Samples;Min_cycle;Max_cycle;Signal;HPM_P1;HPM_P2
2021/09/21 00:00:20;;;;;;;7.85;4.32;;;15.00;95.80;;;;;;5043191;28;20442;-64
2021/09/21 00:02:45;;;;;;;6.93;4.50;;;15.00;95.80;;;;;;5040334;28;20083;-64
2021/09/21 00:05:11;;;;;;;6.68;3.78;;;15.00;95.80;;;;;;5032060;28;20029;-64
2021/09/21 00:07:37;;;;;;;7.57;4.20;;;15.00;95.70;;;;;;5033936;28;20473;-64
2021/09/21 00:10:04;;;;;;;7.45;3.95;;;14.90;95.80;;;;;;5033451;28;20033;-64
2021/09/21 00:12:30;;;;;;;6.75;3.78;;;14.90;95.80;;;;;;5033267;28;20040;-64
2021/09/21 00:14:55;;;;;;;7.40;4.28;;;14.90;95.80;;;;;;5033472;28;20378;-64
2021/09/21 00:17:21;;;;;;;6.95;3.88;;;14.90;95.80;;;;;;5020081;28;20402;-64
2021/09/21 00:19:46;;;;;;;6.47;3.80;;;15.00;95.90;;;;;;5028766;28;20482;-64
2021/09/21 00:22:12;;;;;;;6.43;4.05;;;14.90;95.90;;;;;;5030027;28;20021;-64
2021/09/21 00:24:37;;;;;;;6.07;4.18;;;14.90;95.90;;;;;;5033064;28;20057;-64
2021/09/21 00:27:03;;;;;;;5.53;3.53;;;14.90;95.90;;;;;;5031661;28;20060;-64
2021/09/21 00:29:28;;;;;;;7.22;4.03;;;14.90;96.00;;;;;;5015093;28;20029;-64
2021/09/21 00:32:00;;;;;;;7.10;4.47;;;14.90;96.00;;;;;;5050006;28;20078;-64
2021/09/21 00:34:39;;;;;;;7.45;4.38;;;14.90;96.00;;;;;;5034133;28;20033;-65
2021/09/21 00:37:06;;;;;;;8.07;3.95;;;14.90;96.00;;;;;;5032435;28;20033;-64
2021/09/21 00:39:31;;;;;;;6.88;4.15;;;14.80;96.00;;;;;;5032518;28;20056;-64
2021/09/21 00:41:57;;;;;;;6.43;3.63;;;14.90;96.00;;;;;;5032505;28;20021;-64
2021/09/21 00:44:23;;;;;;;7.18;3.63;;;14.80;96.00;;;;;;5032370;28;20053;-63
2021/09/21 00:46:49;;;;;;;6.78;3.67;;;14.90;96.00;;;;;;5032138;28;20021;-64
2021/09/21 00:49:15;;;;;;;7.57;4.00;;;14.90;96.10;;;;;;5031567;28;20398;-63
2021/09/21 00:51:42;;;;;;;6.95;4.00;;;14.90;96.10;;;;;;5032677;28;20049;-63
2021/09/21 00:54:07;;;;;;;6.82;4.00;;;14.90;96.10;;;;;;5032202;28;20076;-64
2021/09/21 00:56:33;;;;;;;6.10;3.85;;;14.90;96.10;;;;;;5039876;28;20132;-64
2021/09/21 00:58:58;;;;;;;5.57;3.60;;;14.80;96.10;;;;;;5033079;28;20164;-64
2021/09/21 01:01:24;;;;;;;6.35;3.53;;;14.90;96.10;;;;;;5031286;28;20422;-64
2021/09/21 01:03:50;;;;;;;5.90;3.90;;;14.90;96.30;;;;;;5032400;28;20033;-63
2021/09/21 01:06:15;;;;;;;9.50;4.38;;;14.90;96.10;;;;;;5032001;28;20060;-63
2021/09/21 01:08:41;;;;;;;6.53;3.90;;;14.80;96.30;;;;;;5031255;28;20556;-64
2021/09/21 01:11:14;;;;;;;7.75;4.28;;;14.90;96.20;;;;;;5035091;28;20106;-63
2021/09/21 01:13:40;;;;;;;7.65;4.18;;;14.90;96.20;;;;;;5040131;28;20032;-63
2021/09/21 01:16:06;;;;;;;7.40;4.53;;;14.90;96.20;;;;;;5050361;28;20035;-64
2021/09/21 01:18:33;;;;;;;8.13;4.75;;;14.90;96.20;;;;;;5033292;28;20576;-64
2021/09/21 01:21:04;;;;;;;7.25;4.15;;;14.90;96.30;;;;;;5030416;28;20025;-64
2021/09/21 01:23:53;;;;;;;6.85;3.85;;;14.90;96.30;;;;;;5015790;28;20505;-64
2021/09/21 01:26:21;;;;;;;7.18;4.15;;;14.90;96.30;;;;;;5022983;28;20031;-64
2021/09/21 01:28:47;;;;;;;6.25;4.53;;;14.90;96.20;;;;;;5031967;28;20033;-64
2021/09/21 01:31:13;;;;;;;5.57;4.13;;;14.90;96.20;;;;;;5042991;28;20033;-64
2021/09/21 01:33:39;;;;;;;8.40;4.60;;;14.90;96.40;;;;;;5032003;28;20075;-64
2021/09/21 01:36:05;;;;;;;7.70;4.15;;;14.90;96.30;;;;;;5028937;28;20080;-63
2021/09/21 01:38:31;;;;;;;7.13;3.67;;;14.90;96.30;;;;;;5052295;28;20113;-63
2021/09/21 01:40:57;;;;;;;6.13;3.95;;;14.90;96.30;;;;;;5042485;28;20116;-64
2021/09/21 01:43:22;;;;;;;6.28;3.60;;;14.90;96.30;;;;;;5031528;28;20034;-64
2021/09/21 01:45:48;;;;;;;6.38;3.70;;;14.80;96.20;;;;;;5032360;28;20418;-64
2021/09/21 01:48:14;;;;;;;7.70;3.60;;;14.80;96.30;;;;;;5032418;28;20056;-63
2021/09/21 01:50:54;;;;;;;7.35;4.03;;;14.70;96.30;;;;;;5031412;28;20087;-64
2021/09/21 01:53:28;;;;;;;5.70;4.03;;;14.80;96.30;;;;;;5032245;28;20489;-64
2021/09/21 01:58:53;;;;;;;6.90;4.22;;;14.80;96.40;;;;;;5030345;28;20053;-65
2021/09/21 02:01:29;;;;;;;5.80;4.10;;;14.70;96.30;;;;;;5028030;28;20065;-64
2021/09/21 02:03:55;;;;;;;;;;;14.70;96.40;;;;;;5029046;28;20083;-64
2021/09/21 02:06:28;;;;;;;5.95;3.42;;;14.80;96.40;;;;;;5031960;28;19909;-64
2021/09/21 02:08:54;;;;;;;5.28;3.40;;;14.70;96.30;;;;;;5048244;28;20490;-65
2021/09/21 02:11:19;;;;;;;6.75;3.95;;;14.70;96.40;;;;;;5012160;28;20026;-64
2021/09/21 02:13:45;;;;;;;6.13;4.10;;;14.70;96.40;;;;;;5029151;28;20072;-64
2021/09/21 02:16:10;;;;;;;6.20;3.83;;;14.70;96.40;;;;;;5017900;28;20029;-64
2021/09/21 02:18:36;;;;;;;6.47;4.38;;;14.70;96.40;;;;;;5044379;28;20497;-64
2021/09/21 02:21:01;;;;;;;5.53;3.88;;;14.70;96.50;;;;;;5035214;28;20029;-64
2021/09/21 02:23:27;;;;;;;6.63;3.53;;;14.60;96.50;;;;;;5031075;28;20040;-64
2021/09/21 02:25:53;;;;;;;6.10;3.35;;;14.70;96.50;;;;;;5018055;28;20022;-64
2021/09/21 02:28:19;;;;;;;5.88;3.50;;;14.70;96.50;;;;;;5018356;28;20034;-64
2021/09/21 02:30:45;;;;;;;6.10;4.13;;;14.70;96.50;;;;;;5018245;28;20061;-64
2021/09/21 02:33:12;;;;;;;6.03;3.63;;;14.70;96.50;;;;;;5037510;28;20418;-64
2021/09/21 02:35:39;;;;;;;7.18;3.90;;;14.70;96.50;;;;;;5031719;28;20025;-63
2021/09/21 02:38:05;;;;;;;6.60;3.90;;;14.70;96.50;;;;;;5029773;28;20034;-63
2021/09/21 02:40:30;;;;;;;5.00;3.30;;;14.70;96.50;;;;;;5031692;28;20025;-63
2021/09/21 02:42:56;;;;;;;6.57;4.20;;;14.70;96.50;;;;;;5036768;28;20059;-63
2021/09/21 02:45:22;;;;;;;6.68;3.65;;;14.70;96.50;;;;;;5031577;28;20107;-64
2021/09/21 02:47:48;;;;;;;6.78;3.90;;;14.70;96.50;;;;;;5035646;28;20033;-64
2021/09/21 02:50:13;;;;;;;7.82;3.72;;;14.70;96.50;;;;;;5031364;28;20326;-64
2021/09/21 02:52:39;;;;;;;6.15;3.83;;;14.70;96.50;;;;;;5036112;28;20123;-64
2021/09/21 02:55:05;;;;;;;5.75;3.53;;;14.70;96.40;;;;;;5030660;28;20403;-64
2021/09/21 02:57:35;;;;;;;5.25;3.70;;;14.70;96.50;;;;;;5035409;28;20268;-64
2021/09/21 03:00:07;;;;;;;5.70;3.78;;;14.70;96.50;;;;;;5034313;28;20036;-64
2021/09/21 03:02:34;;;;;;;7.03;4.57;;;14.70;96.50;;;;;;5042878;28;20034;-64
2021/09/21 03:05:03;;;;;;;5.28;3.65;;;14.70;96.50;;;;;;5051003;28;20087;-64
2021/09/21 03:07:39;;;;;;;5.90;4.10;;;14.60;96.50;;;;;;5038298;28;20026;-64
2021/09/21 03:10:14;;;;;;;5.25;3.72;;;14.60;96.50;;;;;;5031440;28;20041;-65
2021/09/21 03:13:00;;;;;;;8.70;4.53;;;14.70;96.60;;;;;;5037132;28;20029;-65
2021/09/21 03:18:10;;;;;;;7.97;4.40;;;14.60;96.50;;;;;;5030165;28;20485;-64
2021/09/21 03:20:36;;;;;;;6.28;3.65;;;14.60;96.50;;;;;;5031560;28;20022;-65
2021/09/21 03:23:01;;;;;;;6.70;3.63;;;14.60;96.50;;;;;;5040528;28;20120;-64
2021/09/21 03:25:27;;;;;;;5.68;3.80;;;14.60;96.50;;;;;;5055214;28;20040;-64
2021/09/21 03:27:52;;;;;;;5.90;3.53;;;14.60;96.50;;;;;;5041649;28;20176;-65
2021/09/21 03:30:18;;;;;;;6.90;3.63;;;14.60;96.60;;;;;;5032708;28;20021;-64
2021/09/21 03:32:43;;;;;;;7.07;3.70;;;14.60;96.60;;;;;;5036454;28;20017;-64
2021/09/21 03:35:09;;;;;;;5.55;3.17;;;14.60;96.60;;;;;;5034512;28;20076;-65
2021/09/21 03:37:36;;;;;;;6.57;3.90;;;14.60;96.70;;;;;;5033407;28;20034;-65
2021/09/21 03:40:03;;;;;;;5.97;3.95;;;14.60;96.60;;;;;;5034683;28;20041;-65
2021/09/21 03:42:28;;;;;;;7.45;3.38;;;14.60;96.60;;;;;;5037779;28;20087;-64
2021/09/21 03:44:54;;;;;;;6.85;3.88;;;14.60;96.50;;;;;;5014879;28;20037;-64
2021/09/21 03:47:19;;;;;;;6.57;4.05;;;14.60;96.50;;;;;;5019910;28;20033;-65
2021/09/21 03:49:45;;;;;;;5.07;3.63;;;14.60;96.60;;;;;;5032972;28;20036;-64
2021/09/21 03:52:10;;;;;;;6.70;4.00;;;14.60;96.60;;;;;;5037152;28;20509;-64
2021/09/21 03:54:36;;;;;;;5.60;3.83;;;14.60;96.60;;;;;;5020135;28;20026;-65
2021/09/21 03:57:02;;;;;;;6.07;3.72;;;14.60;96.70;;;;;;5021430;28;20033;-65
2021/09/21 03:59:28;;;;;;;5.63;3.97;;;14.60;96.70;;;;;;5040359;28;20477;-64
2021/09/21 04:01:53;;;;;;;6.30;4.00;;;14.60;96.70;;;;;;5051616;28;20025;-65
2021/09/21 04:04:19;;;;;;;6.13;3.88;;;14.60;96.80;;;;;;5038886;28;20464;-64
2021/09/21 04:06:46;;;;;;;5.32;3.50;;;14.60;97.00;;;;;;5033482;28;20087;-64
2021/09/21 04:09:12;;;;;;;5.55;3.65;;;14.60;96.70;;;;;;5033565;28;20034;-64
2021/09/21 04:11:38;;;;;;;7.53;4.00;;;14.60;96.70;;;;;;5032781;28;20021;-65
2021/09/21 04:14:03;;;;;;;7.18;3.97;;;14.60;96.70;;;;;;5052308;28;20032;-64
2021/09/21 04:16:30;;;;;;;6.05;3.85;;;14.60;96.70;;;;;;5038729;28;20569;-64
2021/09/21 04:18:57;;;;;;;6.55;3.95;;;14.60;96.70;;;;;;5033066;28;20122;-64
2021/09/21 04:21:23;;;;;;;7.22;4.00;;;14.60;96.80;;;;;;5047858;28;20025;-64
2021/09/21 04:23:48;;;;;;;7.18;3.95;;;14.60;96.80;;;;;;5047933;28;20033;-64
2021/09/21 04:26:15;;;;;;;5.00;3.25;;;14.60;96.70;;;;;;5035408;28;20565;-64
2021/09/21 04:28:40;;;;;;;5.80;4.07;;;14.60;96.70;;;;;;5034115;28;20083;-64
2021/09/21 04:31:10;;;;;;;7.38;4.20;;;14.60;96.70;;;;;;5047752;28;20414;-64
2021/09/21 04:33:38;;;;;;;5.65;3.80;;;14.60;96.70;;;;;;5032791;28;20033;-64
2021/09/21 04:36:06;;;;;;;6.38;4.07;;;14.60;96.80;;;;;;5027197;28;20052;-64
2021/09/21 04:38:31;;;;;;;7.70;4.18;;;14.60;96.70;;;;;;5046766;28;20051;-64
2021/09/21 04:40:57;;;;;;;7.47;4.45;;;14.60;96.70;;;;;;5041594;28;20029;-64
2021/09/21 04:43:22;;;;;;;6.25;4.10;;;14.60;96.70;;;;;;5043122;28;20028;-64
2021/09/21 04:45:48;;;;;;;7.10;4.45;;;14.60;96.70;;;;;;5033445;28;20017;-64
2021/09/21 04:48:14;;;;;;;8.10;4.03;;;14.50;96.60;;;;;;5032306;28;20056;-65
2021/09/21 04:50:39;;;;;;;13.65;5.03;;;14.50;96.70;;;;;;5012485;28;20026;-64
2021/09/21 04:53:05;;;;;;;8.23;4.50;;;14.50;96.60;;;;;;5035550;28;20025;-64
2021/09/21 04:55:30;;;;;;;5.68;3.83;;;14.50;96.70;;;;;;5050380;28;20087;-64
2021/09/21 04:57:56;;;;;;;8.55;4.35;;;14.50;96.60;;;;;;5050471;28;20397;-64
2021/09/21 05:00:21;;;;;;;6.22;4.10;;;14.50;96.60;;;;;;5031943;28;20060;-64
2021/09/21 05:02:47;;;;;;;7.15;3.58;;;14.60;96.60;;;;;;5040381;28;20033;-64
2021/09/21 05:05:12;;;;;;;5.80;3.83;;;14.60;96.50;;;;;;5038027;28;20022;-63
2021/09/21 05:07:38;;;;;;;5.30;3.95;;;14.50;96.50;;;;;;5037705;28;20484;-64
2021/09/21 05:10:04;;;;;;;7.00;4.38;;;14.60;96.60;;;;;;5040017;28;20152;-64
2021/09/21 05:12:29;;;;;;;6.18;4.30;;;14.60;96.60;;;;;;5031760;28;20079;-64
2021/09/21 05:14:55;;;;;;;10.27;4.30;;;14.60;96.60;;;;;;5031214;28;20104;-63
2021/09/21 05:17:21;;;;;;;9.18;4.70;;;14.60;96.60;;;;;;5033305;28;20033;-64
2021/09/21 05:19:46;;;;;;;6.13;4.15;;;14.60;96.60;;;;;;5023705;28;20037;-64
2021/09/21 05:22:12;;;;;;;9.48;3.83;;;14.70;96.70;;;;;;5032774;28;20049;-64
2021/09/21 05:24:37;;;;;;;8.70;4.03;;;14.60;96.60;;;;;;5030379;28;20071;-64
2021/09/21 05:27:03;;;;;;;6.75;4.20;;;14.70;96.60;;;;;;5040205;28;20124;-64
2021/09/21 05:29:29;;;;;;;7.68;4.07;;;14.70;96.60;;;;;;5037502;28;20032;-65
2021/09/21 05:31:54;;;;;;;7.43;4.18;;;14.70;96.50;;;;;;5028965;28;20028;-65
2021/09/21 05:34:20;;;;;;;6.32;4.25;;;14.70;96.50;;;;;;5040348;28;20094;-64
2021/09/21 05:36:45;;;;;;;8.10;4.70;;;14.70;96.50;;;;;;5031388;28;20559;-65
2021/09/21 05:39:14;;;;;;;5.63;3.83;;;14.70;96.40;;;;;;5030935;28;20077;-65
2021/09/21 05:41:40;;;;;;;5.60;3.67;;;14.70;96.40;;;;;;5031648;28;20375;-64
2021/09/21 05:44:06;;;;;;;6.70;4.07;;;14.70;96.50;;;;;;5031868;28;20080;-65
2021/09/21 05:46:31;;;;;;;10.23;4.20;;;14.70;96.40;;;;;;5030670;28;20025;-65
2021/09/21 05:48:59;;;;;;;5.55;3.85;;;14.70;96.50;;;;;;5013163;28;20030;-64
2021/09/21 05:51:26;;;;;;;7.47;4.45;;;14.70;96.50;;;;;;5037510;28;20036;-64
2021/09/21 05:53:51;;;;;;;6.22;3.80;;;14.80;96.50;;;;;;5046879;28;20025;-64
2021/09/21 05:56:17;;;;;;;6.07;3.90;;;14.80;96.40;;;;;;5032311;28;20092;-63
2021/09/21 05:58:42;;;;;;;7.65;4.38;;;14.80;96.50;;;;;;5035390;28;20498;-64
2021/09/21 06:01:08;;;;;;;8.43;4.07;;;14.80;96.50;;;;;;5031331;28;20040;-64
2021/09/21 06:03:34;;;;;;;6.95;3.90;;;14.80;96.30;;;;;;5026900;28;20113;-64
2021/09/21 06:06:00;;;;;;;7.90;4.43;;;14.90;96.40;;;;;;5028675;28;20033;-63
2021/09/21 06:08:26;;;;;;;6.55;4.15;;;14.90;96.30;;;;;;5038349;28;20025;-64
2021/09/21 06:10:51;;;;;;;6.45;4.10;;;15.00;96.20;;;;;;5029436;28;20036;-64
2021/09/21 06:13:17;;;;;;;8.70;5.35;;;15.00;96.00;;;;;;5034873;28;20484;-64
2021/09/21 06:15:42;;;;;;;9.27;4.85;;;14.90;95.90;;;;;;5044882;28;20029;-66
2021/09/21 06:18:08;;;;;;;7.28;4.25;;;14.90;95.80;;;;;;5034386;28;20044;-64
2021/09/21 06:20:34;;;;;;;6.65;4.18;;;14.90;95.80;;;;;;5019770;28;20025;-64
2021/09/21 06:22:59;;;;;;;7.03;4.28;;;14.80;95.80;;;;;;5036563;28;20063;-65
2021/09/21 06:25:25;;;;;;;8.65;4.20;;;14.90;95.80;;;;;;5039143;28;20082;-64
2021/09/21 06:27:50;;;;;;;6.70;3.97;;;14.90;95.80;;;;;;5033221;28;20028;-64
2021/09/21 06:30:17;;;;;;;8.32;4.43;;;15.00;95.80;;;;;;5041082;28;20029;-64
2021/09/21 06:32:42;;;;;;;7.82;4.35;;;15.00;96.00;;;;;;5030301;28;20029;-65
2021/09/21 06:35:09;;;;;;;5.50;3.63;;;15.00;95.80;;;;;;5034868;28;20497;-64
2021/09/21 06:37:35;;;;;;;9.73;4.03;;;15.10;95.80;;;;;;5029057;28;20018;-64
2021/09/21 06:40:01;;;;;;;5.43;3.67;;;15.10;95.80;;;;;;5042845;28;20044;-64
2021/09/21 06:42:28;;;;;;;5.55;3.78;;;15.10;95.70;;;;;;5041447;28;20034;-64
2021/09/21 06:44:54;;;;;;;8.05;3.63;;;15.20;95.60;;;;;;5041599;28;20029;-64
2021/09/21 06:47:21;;;;;;;7.60;4.03;;;15.30;95.60;;;;;;5047656;28;20043;-64
2021/09/21 06:49:47;;;;;;;6.90;4.20;;;15.30;95.50;;;;;;5035120;28;20025;-64
2021/09/21 06:52:12;;;;;;;7.90;4.38;;;15.40;95.40;;;;;;5041408;28;20033;-64
2021/09/21 06:54:38;;;;;;;9.25;3.85;;;15.40;95.10;;;;;;5028256;28;20069;-64
2021/09/21 06:57:04;;;;;;;7.95;3.92;;;15.50;95.10;;;;;;5040243;28;20053;-65
2021/09/21 06:59:29;;;;;;;11.52;4.28;;;15.50;95.10;;;;;;5036936;28;20026;-64
2021/09/21 07:01:55;;;;;;;6.25;3.97;;;15.60;94.80;;;;;;5037110;28;20017;-65
2021/09/21 07:04:20;;;;;;;8.23;4.40;;;15.60;95.00;;;;;;5036456;28;20137;-65
2021/09/21 07:06:46;;;;;;;5.20;3.67;;;15.80;95.00;;;;;;5045031;28;20014;-66
2021/09/21 07:09:11;;;;;;;7.72;4.15;;;15.80;94.90;;;;;;5032353;28;20464;-65
2021/09/21 07:11:37;;;;;;;7.07;4.95;;;16.00;94.70;;;;;;5033934;28;20550;-64
2021/09/21 07:14:03;;;;;;;7.30;4.28;;;16.00;94.60;;;;;;5043279;28;20033;-64
2021/09/21 07:16:28;;;;;;;7.28;4.50;;;16.00;94.50;;;;;;5038675;28;21015;-64
2021/09/21 07:18:54;;;;;;;8.85;3.85;;;16.10;94.40;;;;;;5045052;28;20555;-64
2021/09/21 07:21:20;;;;;;;7.82;4.70;;;16.10;94.50;;;;;;5037994;28;20025;-63
2021/09/21 07:23:45;;;;;;;7.10;4.22;;;16.20;93.80;;;;;;5036695;28;20029;-65
2021/09/21 07:26:11;;;;;;;6.68;4.28;;;16.20;93.60;;;;;;5034004;28;20037;-63
2021/09/21 07:28:38;;;;;;;8.43;3.72;;;16.10;93.30;;;;;;5041840;28;20029;-64
2021/09/21 07:31:03;;;;;;;8.52;4.22;;;16.20;93.50;;;;;;5033928;28;20461;-64
2021/09/21 07:33:29;;;;;;;9.60;4.35;;;16.20;93.20;;;;;;5039032;28;20040;-64
2021/09/21 07:35:54;;;;;;;7.20;4.50;;;16.20;93.40;;;;;;5038076;28;20101;-64
2021/09/21 07:38:20;;;;;;;7.93;4.13;;;16.30;93.10;;;;;;5047448;28;20435;-63
2021/09/21 07:40:47;;;;;;;8.15;4.25;;;16.30;93.40;;;;;;5036837;28;20030;-63
2021/09/21 07:43:12;;;;;;;5.78;3.85;;;16.40;93.30;;;;;;5036944;28;20079;-64
2021/09/21 07:45:38;;;;;;;6.47;3.70;;;16.50;93.30;;;;;;5030599;28;20397;-64
2021/09/21 07:48:04;;;;;;;7.85;3.90;;;16.60;93.10;;;;;;5027985;28;20032;-64
2021/09/21 07:50:30;;;;;;;5.15;3.20;;;16.60;92.80;;;;;;5039529;28;20025;-64
2021/09/21 07:52:56;;;;;;;6.25;3.40;;;16.70;92.40;;;;;;5029401;28;20024;-65
2021/09/21 07:55:22;;;;;;;5.78;3.17;;;16.70;91.80;;;;;;5017324;28;20049;-64
2021/09/21 07:57:48;;;;;;;7.05;3.95;;;16.70;91.50;;;;;;5015998;28;20026;-64
2021/09/21 08:00:17;;;;;;;5.70;3.10;;;16.70;91.10;;;;;;5034026;28;20037;-64
2021/09/21 08:02:43;;;;;;;5.88;3.72;;;16.70;90.90;;;;;;5034238;28;20029;-64
2021/09/21 08:05:09;;;;;;;5.40;3.17;;;16.80;90.90;;;;;;5032854;28;20103;-65
2021/09/21 08:07:35;;;;;;;5.00;3.45;;;16.70;91.00;;;;;;5019852;28;20033;-65
2021/09/21 08:10:02;;;;;;;8.90;4.25;;;16.90;91.30;;;;;;5026440;28;20037;-65
2021/09/21 08:12:29;;;;;;;7.50;3.53;;;16.90;91.40;;;;;;5014518;28;20072;-65
2021/09/21 08:14:56;;;;;;;6.97;3.63;;;17.10;91.30;;;;;;5029769;28;20030;-65
2021/09/21 08:17:23;;;;;;;6.22;3.38;;;17.20;91.40;;;;;;5032908;28;20108;-65
2021/09/21 08:19:52;;;;;;;8.02;3.65;;;17.30;91.20;;;;;;5032839;28;20034;-65
2021/09/21 08:22:19;;;;;;;5.78;3.63;;;17.40;90.80;;;;;;5033463;28;20039;-64
2021/09/21 08:24:45;;;;;;;7.53;4.22;;;17.40;90.00;;;;;;5033086;28;20375;-64
2021/09/21 08:27:11;;;;;;;7.75;3.83;;;17.40;90.00;;;;;;5033157;28;20087;-64
2021/09/21 08:29:36;;;;;;;6.75;3.10;;;17.40;89.50;;;;;;5032957;28;20022;-64
2021/09/21 08:32:02;;;;;;;7.10;3.65;;;17.40;88.70;;;;;;5033291;28;20069;-64
2021/09/21 08:34:29;;;;;;;5.45;3.30;;;17.40;89.00;;;;;;5028859;28;20087;-64
2021/09/21 08:36:54;;;;;;;5.68;3.30;;;17.40;89.00;;;;;;5032999;28;20068;-65
2021/09/21 08:39:20;;;;;;;6.95;3.85;;;17.40;89.40;;;;;;5032738;28;20482;-64
2021/09/21 08:41:50;;;;;;;6.30;3.33;;;17.50;88.50;;;;;;5033593;28;20033;-65
2021/09/21 08:44:17;;;;;;;4.80;2.90;;;17.50;87.20;;;;;;5032535;28;20025;-63
2021/09/21 08:46:44;;;;;;;4.70;2.88;;;17.50;84.60;;;;;;5033421;28;20025;-64
2021/09/21 08:49:10;;;;;;;7.40;2.55;;;17.60;85.20;;;;;;5032150;28;20030;-64
2021/09/21 08:51:36;;;;;;;4.90;2.83;;;17.60;84.00;;;;;;5028776;28;20036;-65
2021/09/21 08:54:02;;;;;;;4.90;2.47;;;17.70;84.20;;;;;;5032234;28;20037;-64
2021/09/21 08:56:28;;;;;;;4.97;2.70;;;17.60;82.30;;;;;;5012998;28;20057;-65
2021/09/21 08:59:04;;;;;;;5.45;2.63;;;17.70;81.40;;;;;;5013517;28;20034;-65
2021/09/21 09:01:38;;;;;;;6.50;3.50;;;17.60;82.70;;;;;;5028790;28;20091;-64
2021/09/21 09:04:04;;;;;;;5.47;3.00;;;17.70;83.50;;;;;;5027132;28;20119;-64
2021/09/21 09:06:29;;;;;;;5.28;2.90;;;17.70;82.50;;;;;;5032173;28;20104;-64
2021/09/21 09:08:55;;;;;;;5.22;3.13;;;17.80;83.30;;;;;;5032757;28;20490;-66
2021/09/21 09:11:23;;;;;;;13.98;4.38;;;17.80;82.50;;;;;;5031853;28;20030;-67
2021/09/21 09:13:57;;;;;;;6.35;3.10;;;17.90;82.80;;;;;;5032701;28;20029;-68
2021/09/21 09:16:25;;;;;;;5.28;3.13;;;17.90;82.70;;;;;;5031471;28;20049;-66
2021/09/21 09:19:02;;;;;;;5.43;2.88;;;18.00;82.50;;;;;;5031521;28;20110;-66
2021/09/21 09:21:30;;;;;;;3.45;2.38;;;18.10;82.10;;;;;;5032478;28;20036;-66
2021/09/21 09:23:59;;;;;;;5.22;2.63;;;18.10;80.60;;;;;;5028374;28;20029;-66
2021/09/21 09:26:25;;;;;;;5.38;2.90;;;18.10;80.20;;;;;;5030687;28;20029;-66
2021/09/21 09:28:53;;;;;;;6.28;2.83;;;18.10;79.70;;;;;;5031792;28;20418;-67
2021/09/21 09:31:26;;;;;;;6.05;3.22;;;18.10;78.70;;;;;;5030845;28;20036;-67
2021/09/21 09:33:51;;;;;;;5.55;2.92;;;18.20;79.70;;;;;;5032314;28;20549;-66
2021/09/21 09:36:24;;;;;;;3.60;2.85;;;18.10;79.40;;;;;;5032149;28;20056;-66
2021/09/21 09:39:03;;;;;;;7.40;3.83;;;18.10;78.70;;;;;;5039585;28;20103;-67
2021/09/21 09:41:40;;;;;;;3.85;2.92;;;18.20;78.70;;;;;;5031925;28;20568;-66
2021/09/21 09:44:15;;;;;;;4.55;2.90;;;18.20;77.70;;;;;;5031457;28;20033;-67
2021/09/21 09:47:00;;;;;;;7.18;2.85;;;18.20;77.90;;;;;;5032389;28;20108;-67
2021/09/21 09:49:28;;;;;;;3.85;2.70;;;18.20;77.60;;;;;;5032433;28;20037;-67
2021/09/21 09:51:56;;;;;;;4.82;2.90;;;18.20;77.40;;;;;;5036137;28;20022;-66
2021/09/21 09:54:23;;;;;;;5.85;3.20;;;18.20;77.70;;;;;;5030969;28;20045;-66
2021/09/21 09:56:49;;;;;;;6.38;3.15;;;18.30;77.90;;;;;;5030659;28;20117;-67
2021/09/21 09:59:16;;;;;;;5.35;3.25;;;18.30;77.40;;;;;;5030684;28;20044;-66
2021/09/21 10:01:43;;;;;;;6.70;3.20;;;18.30;76.80;;;;;;5031834;28;20033;-66
2021/09/21 10:04:11;;;;;;;4.35;3.47;;;18.30;77.40;;;;;;5031175;28;20056;-67
2021/09/21 10:06:37;;;;;;;5.82;3.22;;;18.30;77.00;;;;;;5031849;28;20174;-67
2021/09/21 10:09:03;;;;;;;6.82;3.50;;;18.30;76.90;;;;;;5029907;28;20104;-65
2021/09/21 10:11:30;;;;;;;6.07;3.30;;;18.30;76.70;;;;;;5039032;28;20112;-66
2021/09/21 10:14:01;;;;;;;4.90;3.33;;;18.30;76.90;;;;;;5050213;28;20028;-66
2021/09/21 10:16:27;;;;;;;4.18;2.88;;;18.30;76.60;;;;;;5020563;28;20087;-66
2021/09/21 10:18:54;;;;;;;7.03;3.78;;;18.40;76.40;;;;;;5028287;28;20038;-66
2021/09/21 10:21:30;;;;;;;5.35;3.03;;;18.50;75.60;;;;;;5031635;28;20478;-66
2021/09/21 10:23:59;;;;;;;6.85;3.45;;;18.50;76.20;;;;;;5031297;28;20025;-66
2021/09/21 10:26:25;;;;;;;7.30;3.65;;;18.60;75.70;;;;;;5031713;28;20053;-66
2021/09/21 10:28:51;;;;;;;4.80;3.15;;;18.60;74.50;;;;;;5030931;28;20398;-66
2021/09/21 10:31:19;;;;;;;6.20;3.45;;;18.60;75.10;;;;;;5020407;28;20089;-66
2021/09/21 10:33:46;;;;;;;5.55;3.13;;;18.60;74.80;;;;;;5029843;28;20030;-66
2021/09/21 10:36:23;;;;;;;6.57;3.47;;;18.60;74.50;;;;;;5037379;28;20485;-66
2021/09/21 10:38:54;;;;;;;4.60;3.15;;;18.70;73.80;;;;;;5040368;28;20127;-65
2021/09/21 10:41:19;;;;;;;5.03;3.38;;;18.80;72.80;;;;;;5031710;28;20026;-66
2021/09/21 10:43:55;;;;;;;4.97;3.22;;;18.80;73.90;;;;;;5030947;28;20147;-66
2021/09/21 10:46:23;;;;;;;4.80;3.42;;;18.90;73.90;;;;;;5029793;28;20381;-66
2021/09/21 10:48:48;;;;;;;6.97;3.65;;;18.90;72.70;;;;;;5031636;28;20049;-66
2021/09/21 10:51:14;;;;;;;8.40;3.20;;;19.00;73.50;;;;;;5030320;28;20045;-66
2021/09/21 10:53:40;;;;;;;7.40;3.50;;;19.10;72.00;;;;;;5031588;28;20673;-66
2021/09/21 10:56:11;;;;;;;5.75;3.30;;;19.10;72.30;;;;;;5030102;28;20568;-66
2021/09/21 10:58:38;;;;;;;5.60;3.08;;;19.10;71.00;;;;;;5030757;28;20047;-66
2021/09/21 11:01:05;;;;;;;5.45;3.00;;;19.00;71.50;;;;;;5030101;28;20037;-66
2021/09/21 11:03:32;;;;;;;4.70;3.33;;;19.00;71.50;;;;;;5031379;28;20061;-66
2021/09/21 11:05:58;;;;;;;5.50;3.30;;;18.90;71.30;;;;;;5030641;28;20479;-66
2021/09/21 11:08:32;;;;;;;4.43;3.05;;;18.90;71.20;;;;;;5030803;28;20022;-66
2021/09/21 11:10:59;;;;;;;8.05;3.40;;;18.90;71.40;;;;;;5028794;28;20087;-66
2021/09/21 11:13:27;;;;;;;5.05;2.85;;;18.90;71.60;;;;;;5030060;28;20052;-66
2021/09/21 11:15:58;;;;;;;5.72;3.22;;;18.70;71.70;;;;;;5026283;28;20029;-68
2021/09/21 11:18:23;;;;;;;4.55;3.10;;;18.60;71.80;;;;;;5020829;28;20026;-65
2021/09/21 11:21:06;;;;;;;5.65;3.35;;;18.50;71.50;;;;;;5029787;28;20048;-66
2021/09/21 11:23:34;;;;;;;4.10;2.80;;;18.40;71.40;;;;;;5029809;28;20133;-65
2021/09/21 11:26:03;;;;;;;6.60;3.20;;;18.30;71.20;;;;;;5030605;28;20026;-65
2021/09/21 11:28:34;;;;;;;4.75;2.75;;;18.30;71.30;;;;;;5027785;28;20557;-65
2021/09/21 11:31:01;;;;;;;6.68;3.55;;;18.20;71.90;;;;;;5030520;28;20029;-65
2021/09/21 11:33:32;;;;;;;7.25;3.53;;;18.30;72.30;;;;;;5028138;28;20032;-65
2021/09/21 11:36:01;;;;;;;5.38;3.35;;;18.30;71.90;;;;;;5025419;28;20052;-65
2021/09/21 11:38:36;;;;;;;6.65;3.45;;;18.30;72.20;;;;;;5040131;28;20497;-65
2021/09/21 11:41:02;;;;;;;;;;;18.30;72.40;;;;;;5021576;28;20114;-65
2021/09/21 11:43:29;;;;;;;5.43;3.13;;;18.50;72.70;;;;;;5029603;28;20003;-66
2021/09/21 11:45:55;;;;;;;4.70;3.40;;;18.50;72.40;;;;;;5039585;28;20048;-66
2021/09/21 11:48:21;;;;;;;5.13;3.47;;;18.70;72.30;;;;;;5035512;28;20180;-65
2021/09/21 11:50:48;;;;;;;5.57;2.72;;;18.80;72.10;;;;;;5031514;28;20030;-65
2021/09/21 11:53:16;;;;;;;5.63;3.40;;;18.80;71.70;;;;;;5039046;28;20026;-66
2021/09/21 11:55:45;;;;;;;4.47;3.03;;;18.90;71.60;;;;;;5039427;28;20149;-65
2021/09/21 11:58:14;;;;;;;4.38;3.28;;;19.00;70.80;;;;;;5031945;28;20037;-65
2021/09/21 12:00:49;;;;;;;7.95;3.08;;;19.10;69.70;;;;;;5033945;28;20029;-65
2021/09/21 12:03:17;;;;;;;5.88;2.65;;;19.00;69.70;;;;;;5037202;28;20030;-65
2021/09/21 12:05:45;;;;;;;4.28;2.78;;;19.00;69.30;;;;;;5032644;28;20030;-66
2021/09/21 12:08:28;;;;;;;6.47;3.25;;;19.00;68.80;;;;;;5030725;28;20029;-65
2021/09/21 12:11:03;;;;;;;4.63;2.67;;;19.00;69.00;;;;;;5037068;28;20541;-65
2021/09/21 12:13:30;;;;;;;4.03;2.83;;;19.10;69.00;;;;;;5039136;28;20029;-65
2021/09/21 12:15:58;;;;;;;5.30;3.65;;;19.20;68.80;;;;;;5039278;28;20025;-66
2021/09/21 12:18:24;;;;;;;5.03;2.83;;;19.10;68.00;;;;;;5035597;28;20028;-67
2021/09/21 12:21:03;;;;;;;5.35;2.95;;;19.10;68.10;;;;;;5037557;28;20048;-66
2021/09/21 12:23:32;;;;;;;4.68;3.22;;;18.90;67.80;;;;;;5032638;28;20532;-65
2021/09/21 12:26:00;;;;;;;4.68;2.78;;;18.80;67.80;;;;;;5042675;28;20029;-66
2021/09/21 12:28:28;;;;;;;6.13;3.05;;;18.70;67.80;;;;;;5035095;28;20052;-67
2021/09/21 12:30:54;;;;;;;5.20;3.15;;;18.60;67.60;;;;;;5035162;28;20025;-66
2021/09/21 12:33:20;;;;;;;5.07;2.95;;;18.50;68.10;;;;;;5035397;28;20094;-67
2021/09/21 12:35:51;;;;;;;4.47;2.70;;;18.50;68.20;;;;;;5041540;28;20473;-65
2021/09/21 12:38:24;;;;;;;4.65;3.20;;;18.50;68.60;;;;;;5043393;28;20041;-66
2021/09/21 12:40:58;;;;;;;6.50;2.80;;;18.50;69.10;;;;;;5031457;28;20021;-66
2021/09/21 12:43:25;;;;;;;4.77;2.93;;;18.60;68.60;;;;;;5037165;28;20025;-66
2021/09/21 12:45:53;;;;;;;4.22;2.55;;;18.60;68.30;;;;;;5030996;28;20083;-67
2021/09/21 12:48:24;;;;;;;4.50;2.80;;;18.60;68.20;;;;;;5036147;28;20044;-66
2021/09/21 12:50:53;;;;;;;6.53;2.83;;;18.70;68.10;;;;;;5032395;28;20034;-68
2021/09/21 12:53:19;;;;;;;4.53;3.22;;;18.70;67.70;;;;;;5037539;28;20026;-66